createdAt,value
2023-05-10T00:01:58.224Z,11.70
2023-05-10T00:05:07.392Z,11.70
2023-05-10T00:08:15.875Z,11.70
2023-05-10T00:11:25.608Z,11.70
2023-05-10T00:14:34.500Z,11.70
2023-05-10T00:17:42.987Z,11.60
2023-05-10T00:20:51.479Z,11.50
2023-05-10T00:23:59.787Z,11.50
2023-05-10T00:27:09.535Z,11.40
2023-05-10T00:30:19.972Z,11.40
2023-05-10T00:33:28.387Z,11.40
2023-05-10T00:36:36.695Z,11.50
2023-05-10T00:39:45.162Z,11.50
2023-05-10T00:42:55.064Z,11.50
2023-05-10T00:46:03.712Z,11.50
2023-05-10T00:49:12.604Z,11.50
2023-05-10T00:52:21.364Z,11.50
2023-05-10T00:55:29.935Z,11.50
2023-05-10T00:58:39.958Z,11.50
2023-05-10T01:01:48.673Z,11.40
2023-05-10T01:04:57.802Z,11.40
2023-05-10T01:08:07.354Z,11.60
2023-05-10T01:11:16.299Z,11.50
2023-05-10T01:14:27.194Z,11.40
2023-05-10T01:17:37.256Z,11.30
2023-05-10T01:20:54.347Z,11.20
2023-05-10T01:24:41.604Z,11.30
2023-05-10T01:28:13.059Z,11.20
2023-05-10T01:31:52.956Z,11.20
2023-05-10T01:35:08.570Z,11.30
2023-05-10T01:38:21.374Z,11.20
2023-05-10T01:41:37.720Z,11.20
2023-05-10T01:44:55.157Z,11.10
2023-05-10T01:48:09.501Z,11.00
2023-05-10T01:51:25.272Z,11.00
2023-05-10T01:54:36.571Z,10.90
2023-05-10T01:57:47.133Z,10.90
2023-05-10T02:00:57.132Z,10.90
2023-05-10T02:04:06.984Z,10.90
2023-05-10T02:07:19.165Z,10.80
2023-05-10T02:10:29.441Z,10.70
2023-05-10T02:13:40.453Z,10.80
2023-05-10T02:16:50.323Z,10.70
2023-05-10T02:20:01.087Z,10.70
2023-05-10T02:23:12.077Z,10.60
2023-05-10T02:26:23.304Z,10.60
2023-05-10T02:29:33.496Z,10.60
2023-05-10T02:32:43.176Z,10.50
2023-05-10T02:35:53.276Z,10.50
2023-05-10T02:39:04.422Z,10.50
2023-05-10T02:42:17.269Z,10.40
2023-05-10T02:45:30.227Z,10.40
2023-05-10T02:48:39.415Z,10.50
2023-05-10T02:51:53.704Z,10.50
2023-05-10T02:55:07.364Z,10.50
2023-05-10T02:58:16.110Z,10.40
2023-05-10T03:01:24.589Z,10.40
2023-05-10T03:04:33.076Z,10.40
2023-05-10T03:07:41.717Z,10.40
2023-05-10T03:11:07.968Z,10.40
2023-05-10T03:14:39.425Z,10.40
2023-05-10T03:17:54.772Z,10.40
2023-05-10T03:21:07.267Z,10.30
2023-05-10T03:24:18.082Z,10.30
2023-05-10T03:27:30.253Z,10.30
2023-05-10T03:30:39.615Z,10.30
2023-05-10T03:33:50.518Z,10.30
2023-05-10T03:37:04.148Z,10.40
2023-05-10T03:40:14.422Z,10.30
2023-05-10T03:43:26.083Z,10.30
2023-05-10T03:46:34.547Z,10.30
2023-05-10T03:49:44.199Z,10.30
2023-05-10T03:52:55.589Z,10.20
2023-05-10T03:56:04.525Z,10.20
2023-05-10T03:59:14.331Z,10.30
2023-05-10T04:02:22.837Z,10.30
2023-05-10T04:05:32.155Z,10.30
2023-05-10T04:08:41.027Z,10.30
2023-05-10T04:11:49.472Z,10.30
2023-05-10T04:14:59.258Z,10.30
2023-05-10T04:18:08.843Z,10.30
2023-05-10T04:21:17.950Z,10.30
2023-05-10T04:24:26.526Z,10.40
2023-05-10T04:27:35.046Z,10.40
2023-05-10T04:30:45.063Z,10.40
2023-05-10T04:33:53.421Z,10.40
2023-05-10T04:37:01.752Z,10.50
2023-05-10T04:40:11.509Z,10.60
2023-05-10T04:43:20.021Z,10.60
2023-05-10T04:46:38.611Z,10.70
2023-05-10T04:49:47.075Z,10.70
2023-05-10T04:52:55.563Z,10.70
2023-05-10T04:56:04.083Z,10.80
2023-05-10T04:59:12.566Z,10.80
2023-05-10T05:02:22.816Z,10.90
2023-05-10T05:05:33.620Z,11.00
2023-05-10T05:08:42.128Z,11.00
2023-05-10T05:11:50.644Z,11.10
2023-05-10T05:14:59.245Z,11.20
2023-05-10T05:18:09.327Z,11.30
2023-05-10T05:21:18.233Z,11.40
2023-05-10T05:24:26.740Z,11.60
2023-05-10T05:27:35.146Z,11.70
2023-05-10T05:30:43.545Z,11.90
2023-05-10T05:33:53.460Z,12.00
2023-05-10T05:37:02.272Z,12.20
2023-05-10T05:40:14.382Z,12.20
2023-05-10T05:43:22.796Z,12.30
2023-05-10T05:46:31.215Z,12.50
2023-05-10T05:49:41.176Z,12.60
2023-05-10T05:52:49.536Z,12.70
2023-05-10T05:55:59.348Z,12.80
2023-05-10T05:59:07.879Z,13.00
2023-05-10T06:02:16.554Z,13.10
2023-05-10T06:05:26.396Z,13.40
2023-05-10T06:08:35.102Z,13.70
2023-05-10T06:11:43.979Z,13.90
2023-05-10T06:14:52.597Z,14.20
2023-05-10T06:18:01.157Z,14.70
2023-05-10T06:21:11.205Z,15.50
2023-05-10T06:24:21.988Z,17.60
2023-05-10T06:27:30.335Z,19.70
2023-05-10T06:30:39.142Z,21.40
2023-05-10T06:33:47.576Z,22.20
2023-05-10T06:36:57.449Z,23.20
2023-05-10T06:40:06.916Z,22.30
2023-05-10T06:43:15.518Z,22.40
2023-05-10T06:46:24.043Z,22.50
2023-05-10T06:49:32.558Z,22.50
2023-05-10T06:52:42.435Z,22.30
2023-05-10T06:55:52.705Z,21.90
2023-05-10T06:59:01.144Z,21.40
2023-05-10T07:02:09.676Z,20.90
2023-05-10T07:05:18.324Z,21.80
2023-05-10T07:08:28.415Z,22.20
2023-05-10T07:11:38.433Z,21.20
2023-05-10T07:14:47.738Z,20.60
2023-05-10T07:17:56.551Z,21.00
2023-05-10T07:21:08.025Z,21.80
2023-05-10T07:24:20.194Z,21.40
2023-05-10T07:27:28.758Z,21.40
2023-05-10T07:30:37.217Z,21.70
2023-05-10T07:33:45.799Z,22.00
2023-05-10T07:36:54.411Z,22.40
2023-05-10T07:40:05.928Z,22.80
2023-05-10T07:43:14.378Z,23.10
2023-05-10T07:46:23.020Z,22.90
2023-05-10T07:49:32.064Z,23.10
2023-05-10T07:52:40.477Z,23.10
2023-05-10T07:55:56.644Z,22.40
2023-05-10T07:59:07.411Z,22.70
2023-05-10T08:02:15.886Z,22.50
2023-05-10T08:05:24.384Z,22.40
2023-05-10T08:08:32.902Z,22.70
2023-05-10T08:11:42.838Z,22.40
2023-05-10T08:14:51.330Z,22.50
2023-05-10T08:17:59.765Z,23.00
2023-05-10T08:21:08.652Z,23.00
2023-05-10T08:24:17.284Z,22.80
2023-05-10T08:27:26.989Z,23.10
2023-05-10T08:30:35.587Z,23.70
2023-05-10T08:33:44.792Z,23.50
2023-05-10T08:36:53.598Z,23.10
2023-05-10T08:40:02.111Z,23.50
2023-05-10T08:43:14.154Z,23.70
2023-05-10T08:46:25.081Z,23.20
2023-05-10T08:49:34.810Z,23.10
2023-05-10T08:52:43.759Z,23.60
2023-05-10T08:55:52.791Z,22.80
2023-05-10T08:59:02.723Z,23.40
2023-05-10T09:02:14.269Z,24.00
2023-05-10T09:05:23.680Z,23.70
2023-05-10T09:08:32.282Z,23.60
2023-05-10T09:11:40.940Z,24.00
2023-05-10T09:14:52.794Z,24.40
2023-05-10T09:18:03.465Z,24.20
2023-05-10T09:21:13.052Z,23.80
2023-05-10T09:24:21.570Z,23.80
2023-05-10T09:27:30.060Z,24.00
2023-05-10T09:30:40.347Z,23.10
2023-05-10T09:33:49.841Z,23.80
2023-05-10T09:37:01.743Z,23.60
2023-05-10T09:40:13.775Z,24.00
2023-05-10T09:43:25.021Z,23.70
2023-05-10T09:46:38.342Z,23.50
2023-05-10T09:49:51.230Z,22.60
2023-05-10T09:53:00.939Z,22.60
2023-05-10T09:56:09.595Z,22.90
2023-05-10T09:59:18.692Z,22.50
2023-05-10T10:02:33.158Z,23.00
2023-05-10T10:05:43.354Z,23.20
2023-05-10T10:08:53.497Z,22.80
2023-05-10T10:12:03.736Z,23.00
2023-05-10T10:15:14.580Z,22.90
2023-05-10T10:18:28.139Z,23.10
2023-05-10T10:21:36.796Z,23.30
2023-05-10T10:24:45.657Z,22.80
2023-05-10T10:28:09.440Z,23.20
2023-05-10T10:31:28.672Z,23.50
2023-05-10T10:34:38.707Z,23.50
2023-05-10T10:37:49.102Z,23.10
2023-05-10T10:41:05.432Z,22.80
2023-05-10T10:44:39.226Z,22.60
2023-05-10T10:47:50.874Z,22.90
2023-05-10T10:51:00.829Z,23.10
2023-05-10T10:54:12.872Z,22.90
2023-05-10T10:57:23.775Z,23.10
2023-05-10T11:00:33.508Z,22.80
2023-05-10T11:03:42.098Z,23.00
2023-05-10T11:06:52.188Z,23.30
2023-05-10T11:10:07.183Z,23.00
2023-05-10T11:13:15.727Z,22.80
2023-05-10T11:16:28.047Z,23.00
2023-05-10T11:19:36.892Z,23.00
2023-05-10T11:22:54.201Z,23.20
2023-05-10T11:26:03.202Z,22.60
2023-05-10T11:29:11.736Z,22.90
2023-05-10T11:32:22.516Z,22.60
2023-05-10T11:35:30.984Z,22.20
2023-05-10T11:38:40.750Z,22.40
2023-05-10T11:41:51.223Z,22.20
2023-05-10T11:44:59.793Z,22.50
2023-05-10T11:48:08.299Z,22.30
2023-05-10T11:51:16.954Z,22.10
2023-05-10T11:54:26.763Z,21.50
2023-05-10T11:57:35.420Z,21.40
2023-05-10T12:00:43.897Z,21.30
2023-05-10T12:03:53.833Z,21.30
2023-05-10T12:07:02.480Z,21.20
2023-05-10T12:10:15.759Z,21.20
2023-05-10T12:13:24.677Z,21.40
2023-05-10T12:16:33.356Z,21.30
2023-05-10T12:19:42.219Z,21.20
2023-05-10T12:22:54.185Z,21.00
2023-05-10T12:26:06.305Z,21.20
2023-05-10T12:29:16.656Z,21.40
2023-05-10T12:32:40.269Z,21.30
2023-05-10T12:35:50.270Z,21.00
2023-05-10T12:39:05.969Z,21.10
2023-05-10T12:42:15.771Z,21.00
2023-05-10T12:45:24.486Z,20.90
2023-05-10T12:48:34.800Z,21.00
2023-05-10T12:51:43.260Z,21.20
2023-05-10T12:54:51.690Z,21.00
2023-05-10T12:58:01.590Z,21.20
2023-05-10T13:01:10.475Z,21.20
2023-05-10T13:04:18.983Z,21.20
2023-05-10T13:07:31.627Z,21.30
2023-05-10T13:10:40.120Z,21.40
2023-05-10T13:13:50.187Z,21.40
2023-05-10T13:16:58.845Z,21.20
2023-05-10T13:20:22.719Z,21.30
2023-05-10T13:23:31.239Z,21.10
2023-05-10T13:26:39.762Z,21.20
2023-05-10T13:29:49.534Z,20.90
2023-05-10T13:32:57.942Z,20.60
2023-05-10T13:36:07.254Z,20.50
2023-05-10T13:39:15.724Z,20.60
2023-05-10T13:42:25.217Z,20.90
2023-05-10T13:45:35.413Z,20.80
2023-05-10T13:48:43.891Z,20.90
2023-05-10T13:51:53.592Z,21.00
2023-05-10T13:55:02.148Z,21.00
2023-05-10T13:58:10.822Z,21.00
2023-05-10T14:01:21.209Z,21.00
2023-05-10T14:04:29.555Z,20.90
2023-05-10T14:07:38.183Z,20.90
2023-05-10T14:10:46.753Z,20.90
2023-05-10T14:13:55.635Z,21.00
2023-05-10T14:17:05.416Z,20.80
2023-05-10T14:20:14.400Z,20.90
2023-05-10T14:23:25.311Z,21.00
2023-05-10T14:26:34.140Z,20.90
2023-05-10T14:29:42.576Z,20.90
2023-05-10T14:32:55.038Z,20.80
2023-05-10T14:36:04.531Z,20.70
2023-05-10T14:39:13.817Z,20.80
2023-05-10T14:42:23.346Z,20.80
2023-05-10T14:45:32.046Z,20.80
2023-05-10T14:48:46.293Z,20.80
2023-05-10T14:51:55.016Z,20.60
2023-05-10T14:55:03.497Z,20.50
2023-05-10T14:58:14.438Z,20.40
2023-05-10T15:01:25.694Z,20.40
2023-05-10T15:04:36.120Z,20.40
2023-05-10T15:07:44.988Z,20.30
2023-05-10T15:10:53.549Z,20.20
2023-05-10T15:14:02.893Z,20.20
2023-05-10T15:17:11.615Z,20.20
2023-05-10T15:20:21.927Z,20.20
2023-05-10T15:23:32.211Z,20.10
2023-05-10T15:26:41.418Z,20.10
2023-05-10T15:29:49.976Z,20.10
2023-05-10T15:32:58.485Z,20.10
2023-05-10T15:36:08.953Z,20.10
2023-05-10T15:39:17.373Z,20.10
2023-05-10T15:42:26.043Z,20.00
2023-05-10T15:45:37.345Z,19.80
2023-05-10T15:48:46.010Z,19.80
2023-05-10T15:51:55.841Z,19.70
2023-05-10T15:55:05.139Z,19.70
2023-05-10T15:58:16.852Z,19.80
2023-05-10T16:01:28.629Z,19.70
2023-05-10T16:04:38.933Z,19.60
2023-05-10T16:07:50.218Z,19.70
2023-05-10T16:10:58.844Z,19.70
2023-05-10T16:14:07.512Z,19.20
2023-05-10T16:17:26.416Z,18.90
2023-05-10T16:20:35.564Z,18.90
2023-05-10T16:23:46.702Z,19.10
2023-05-10T16:26:55.214Z,19.30
2023-05-10T16:30:03.636Z,19.40
2023-05-10T16:33:13.756Z,19.40
2023-05-10T16:36:24.738Z,19.40
2023-05-10T16:39:34.564Z,19.40
2023-05-10T16:42:43.586Z,19.30
2023-05-10T16:45:52.045Z,19.30
2023-05-10T16:49:00.988Z,19.20
2023-05-10T16:52:09.408Z,19.20
2023-05-10T16:55:19.406Z,19.20
2023-05-10T16:58:27.844Z,19.10
2023-05-10T17:01:36.260Z,19.10
2023-05-10T17:04:44.748Z,19.00
2023-05-10T17:07:53.156Z,19.00
2023-05-10T17:11:04.267Z,19.10
2023-05-10T17:14:15.864Z,19.00
2023-05-10T17:17:25.270Z,19.00
2023-05-10T17:20:34.393Z,18.90
2023-05-10T17:23:43.257Z,18.80
2023-05-10T17:26:53.349Z,18.80
2023-05-10T17:30:01.919Z,18.80
2023-05-10T17:33:10.697Z,18.80
2023-05-10T17:36:19.188Z,18.70
2023-05-10T17:39:29.195Z,18.50
2023-05-10T17:42:39.566Z,18.50
2023-05-10T17:45:50.847Z,18.50
2023-05-10T17:48:59.246Z,18.40
2023-05-10T17:52:08.172Z,18.40
2023-05-10T17:55:16.915Z,18.40
2023-05-10T17:58:26.967Z,18.40
2023-05-10T18:01:36.135Z,18.20
2023-05-10T18:04:46.853Z,18.20
2023-05-10T18:07:55.290Z,18.10
2023-05-10T18:11:03.807Z,18.10
2023-05-10T18:14:13.837Z,18.10
2023-05-10T18:17:22.473Z,18.10
2023-05-10T18:20:31.365Z,18.00
2023-05-10T18:23:39.807Z,17.90
2023-05-10T18:26:48.214Z,17.80
2023-05-10T18:29:57.959Z,17.80
2023-05-10T18:33:06.378Z,17.80
2023-05-10T18:36:15.046Z,17.60
2023-05-10T18:39:26.038Z,17.60
2023-05-10T18:42:34.406Z,17.50
2023-05-10T18:45:44.292Z,17.40
2023-05-10T18:48:53.060Z,17.30
2023-05-10T18:52:01.621Z,17.20
2023-05-10T18:55:10.686Z,17.20
2023-05-10T18:58:20.180Z,17.20
2023-05-10T19:01:31.119Z,17.10
2023-05-10T19:04:40.081Z,17.00
2023-05-10T19:07:48.607Z,17.00
2023-05-10T19:10:58.123Z,16.90
2023-05-10T19:14:06.807Z,16.80
2023-05-10T19:17:19.125Z,16.70
2023-05-10T19:20:29.154Z,16.70
2023-05-10T19:23:38.805Z,16.60
2023-05-10T19:26:48.545Z,16.50
2023-05-10T19:29:57.218Z,16.40
2023-05-10T19:33:07.175Z,16.30
2023-05-10T19:36:15.727Z,16.20
2023-05-10T19:39:24.257Z,16.20
2023-05-10T19:42:32.749Z,16.10
2023-05-10T19:45:42.609Z,16.10
2023-05-10T19:48:55.380Z,16.00
2023-05-10T19:52:04.627Z,15.90
2023-05-10T19:55:17.113Z,15.90
2023-05-10T19:58:25.663Z,15.80
2023-05-10T20:01:36.887Z,15.80
2023-05-10T20:04:46.989Z,15.70
2023-05-10T20:07:56.200Z,15.60
2023-05-10T20:11:05.652Z,15.60
2023-05-10T20:14:13.978Z,15.60
2023-05-10T20:17:22.635Z,15.50
2023-05-10T20:20:32.835Z,15.50
2023-05-10T20:23:41.278Z,15.50
2023-05-10T20:26:49.735Z,15.50
2023-05-10T20:29:58.151Z,15.30
2023-05-10T20:33:06.840Z,15.20
2023-05-10T20:36:16.911Z,15.20
2023-05-10T20:39:25.282Z,15.10
2023-05-10T20:42:33.782Z,15.20
2023-05-10T20:45:42.771Z,15.10
2023-05-10T20:48:51.185Z,15.10
2023-05-10T20:52:00.976Z,15.10
2023-05-10T20:55:10.611Z,15.10
2023-05-10T20:58:19.073Z,15.00
2023-05-10T21:01:27.511Z,15.00
2023-05-10T21:04:37.261Z,15.00
2023-05-10T21:07:47.197Z,14.90
2023-05-10T21:10:55.700Z,14.90
2023-05-10T21:14:04.171Z,14.80
2023-05-10T21:17:12.577Z,14.90
2023-05-10T21:20:21.349Z,14.80
2023-05-10T21:23:33.864Z,14.70
2023-05-10T21:26:43.450Z,14.70
2023-05-10T21:29:52.194Z,14.70
2023-05-10T21:33:02.807Z,14.70
2023-05-10T21:36:11.318Z,14.60
2023-05-10T21:39:21.524Z,14.60
2023-05-10T21:42:30.250Z,14.60
2023-05-10T21:45:38.885Z,14.50
2023-05-10T21:48:47.440Z,14.50
2023-05-10T21:51:55.837Z,14.40
2023-05-10T21:55:06.620Z,14.40
2023-05-10T21:58:15.040Z,14.30
2023-05-10T22:01:23.577Z,14.30
2023-05-10T22:04:32.003Z,14.20
2023-05-10T22:07:40.738Z,14.20
2023-05-10T22:10:50.673Z,14.20
2023-05-10T22:13:59.953Z,14.10
2023-05-10T22:17:08.720Z,14.10
2023-05-10T22:20:17.496Z,14.10
2023-05-10T22:23:26.343Z,14.00
2023-05-10T22:26:36.153Z,14.00
2023-05-10T22:29:46.414Z,14.00
2023-05-10T22:33:02.087Z,13.90
2023-05-10T22:36:10.677Z,13.90
2023-05-10T22:39:19.118Z,14.00
2023-05-10T22:42:28.842Z,14.00
2023-05-10T22:45:37.306Z,14.00
2023-05-10T22:48:45.670Z,14.00
2023-05-10T22:51:54.431Z,14.00
2023-05-10T22:55:02.782Z,14.00
2023-05-10T22:58:12.890Z,14.00
2023-05-10T23:01:21.584Z,13.90
2023-05-10T23:04:30.335Z,14.00
2023-05-10T23:07:38.668Z,13.90
2023-05-10T23:10:47.149Z,14.00
2023-05-10T23:13:56.893Z,13.90
2023-05-10T23:17:05.556Z,13.90
2023-05-10T23:20:14.672Z,13.90
2023-05-10T23:23:23.847Z,13.90
2023-05-10T23:26:32.240Z,13.90
2023-05-10T23:29:42.118Z,13.90
2023-05-10T23:32:50.554Z,13.90
2023-05-10T23:35:58.980Z,13.90
2023-05-10T23:39:08.209Z,13.90
2023-05-10T23:42:16.636Z,13.80
2023-05-10T23:45:26.419Z,13.80
2023-05-10T23:48:34.897Z,13.80
2023-05-10T23:51:43.270Z,13.70
2023-05-10T23:54:51.688Z,13.70
2023-05-10T23:58:00.051Z,13.70
